Time;durP1;ratioP1;P1;durP2;ratioP2;P2;SDS_P1;SDS_P2;PMS_P1;PMS_P2;Temp;Humidity;BMP_temperature;BMP_pressure;BME280_temperature;BME280_humidity;BME280_pressure;Samples;Min_cycle;Max_cycle;Signal;HPM_P1;HPM_P2
2023/07/08 00:01:01;;;;;;;126.60;8.10;;;;;;;24.55;50.44;99868.72;7304492;19;130236;-39
2023/07/08 00:03:26;;;;;;;123.10;7.93;;;;;;;24.55;49.75;99873.97;7303986;19;129034;-41
2023/07/08 00:05:55;;;;;;;120.60;8.07;;;;;;;24.56;49.68;99873.00;7303974;19;130555;-38
2023/07/08 00:08:21;;;;;;;104.30;7.10;;;;;;;24.57;50.08;99877.28;7303478;19;130860;-37
2023/07/08 00:10:47;;;;;;;118.53;7.53;;;;;;;24.58;49.63;99871.06;7302582;19;130064;-40
2023/07/08 00:13:12;;;;;;;112.20;7.43;;;;;;;24.56;49.60;99873.81;7302506;19;131451;-41
2023/07/08 00:15:39;;;;;;;76.10;5.43;;;;;;;24.58;49.81;99881.56;7304630;19;129458;-37
2023/07/08 00:18:16;;;;;;;81.03;5.97;;;;;;;24.60;49.59;99874.34;7302460;19;129994;-41
2023/07/08 00:20:45;;;;;;;97.37;6.80;;;;;;;24.59;49.24;99880.59;7301311;19;129570;-39
2023/07/08 00:23:10;;;;;;;106.43;7.03;;;;;;;24.60;49.22;99882.22;7304140;19;129503;-41
2023/07/08 00:25:36;;;;;;;110.27;7.00;;;;;;;24.61;49.47;99876.00;7302956;19;131915;-40
2023/07/08 00:28:04;;;;;;;94.37;6.57;;;;;;;24.60;49.15;99879.59;7303025;19;131059;-39
2023/07/08 00:30:31;;;;;;;102.60;6.65;;;;;;;24.59;49.78;99894.56;7300218;19;129811;-42
2023/07/08 00:32:58;;;;;;;113.25;7.32;;;;;;;24.61;49.57;99891.78;7303836;19;130907;-41
2023/07/08 00:35:50;;;;;;;121.78;7.93;;;;;;;24.62;49.22;99893.41;7303311;19;129720;-42
2023/07/08 00:38:27;;;;;;;97.40;6.90;;;;;;;24.62;49.54;99888.16;7301615;19;130628;-41
2023/07/08 00:40:58;;;;;;;72.25;5.40;;;;;;;24.62;49.91;99894.25;7303056;19;131489;-39
2023/07/08 00:43:34;;;;;;;82.45;5.82;;;;;;;24.62;49.76;99889.00;7304089;19;129579;-39
2023/07/08 00:46:27;;;;;;;97.03;6.55;;;;;;;24.62;49.83;99888.16;7303911;19;129647;-39
2023/07/08 00:49:06;;;;;;;82.97;5.80;;;;;;;24.61;49.08;99895.22;7301742;19;130416;-41
2023/07/08 00:51:32;;;;;;;87.80;6.07;;;;;;;24.62;49.81;99891.63;7304832;19;131681;-37
2023/07/08 00:53:57;;;;;;;125.00;8.07;;;;;;;24.63;49.25;99895.06;7302611;19;129957;-37
2023/07/08 00:56:30;;;;;;;114.93;7.20;;;;;;;24.55;49.27;99876.59;7304914;19;130801;-34
2023/07/08 00:59:11;;;;;;;80.20;5.65;;;;;;;24.54;49.10;99865.28;7300894;19;130975;-36
2023/07/08 01:01:39;;;;;;;74.72;5.25;;;;;;;24.63;49.51;99879.28;7303300;19;130212;-38
2023/07/08 01:04:15;;;;;;;92.38;5.93;;;;;;;24.67;49.56;99888.53;7302368;19;130139;-42
2023/07/08 01:06:46;;;;;;;111.25;7.13;;;;;;;24.67;49.09;99880.66;7303883;19;129286;-32
2023/07/08 01:09:14;;;;;;;96.57;6.25;;;;;;;24.66;49.43;99873.75;7304638;19;130475;-33
2023/07/08 01:11:40;;;;;;;86.35;5.78;;;;;;;24.67;48.79;99876.22;7305343;19;129987;-37
2023/07/08 01:14:07;;;;;;;;;;;;;;;24.67;48.85;99870.97;7308237;19;129713;-34
2023/07/08 01:16:33;;;;;;;111.40;7.20;;;;;;;24.62;49.46;99869.75;7302953;19;130132;-35
2023/07/08 01:19:00;;;;;;;110.83;7.10;;;;;;;24.57;49.25;99859.72;7302453;19;129903;-32
2023/07/08 01:21:37;;;;;;;91.50;5.90;;;;;;;24.65;48.62;99872.06;7303683;19;131198;-38
2023/07/08 01:24:06;;;;;;;84.60;5.65;;;;;;;24.68;49.33;99869.16;7303129;19;129053;-33
2023/07/08 01:26:35;;;;;;;94.75;6.28;;;;;;;24.69;48.55;99870.84;7303945;19;131222;-39
2023/07/08 01:29:02;;;;;;;99.53;6.20;;;;;;;24.58;49.28;99855.28;7301892;19;129711;-41
2023/07/08 01:31:27;;;;;;;;;;;;;;;24.69;48.80;99874.31;7308456;19;130504;-37
2023/07/08 01:33:53;;;;;;;59.83;4.55;;;;;;;24.68;49.15;99877.06;7303522;19;130466;-30
2023/07/08 01:36:19;;;;;;;79.13;5.03;;;;;;;24.68;49.07;99872.63;7306073;19;129005;-35
2023/07/08 01:38:45;;;;;;;127.40;7.93;;;;;;;24.66;49.26;99863.22;7301908;19;129733;-43
2023/07/08 01:41:13;;;;;;;111.57;7.00;;;;;;;24.68;48.73;99864.75;7303798;19;129881;-38
2023/07/08 01:43:38;;;;;;;83.05;5.32;;;;;;;24.71;48.50;99863.63;7303167;19;130011;-39
2023/07/08 01:46:11;;;;;;;97.07;6.43;;;;;;;24.71;48.79;99861.00;7302801;19;130812;-40
2023/07/08 01:48:39;;;;;;;103.25;6.30;;;;;;;24.71;48.41;99863.63;7301294;19;129984;-37
2023/07/08 01:51:05;;;;;;;81.38;5.32;;;;;;;24.72;49.08;99858.22;7304403;19;129963;-38
2023/07/08 01:53:42;;;;;;;87.35;5.75;;;;;;;24.74;48.65;99855.44;7303597;19;129657;-38
2023/07/08 01:56:09;;;;;;;95.45;6.18;;;;;;;24.61;49.05;99841.84;7301129;19;129279;-32
2023/07/08 01:58:34;;;;;;;95.57;6.13;;;;;;;24.61;48.41;99834.75;7300575;19;130643;-39
2023/07/08 02:01:01;;;;;;;98.13;6.30;;;;;;;24.73;48.68;99853.75;7304260;19;129780;-38
2023/07/08 02:03:27;;;;;;;105.00;6.80;;;;;;;24.73;49.08;99853.75;7303046;19;130681;-37
2023/07/08 02:05:53;;;;;;;95.88;6.18;;;;;;;24.63;48.89;99826.72;7301703;19;129655;-39
2023/07/08 02:08:19;;;;;;;93.33;6.17;;;;;;;24.71;48.96;99845.22;7299224;19;130100;-30
2023/07/08 02:10:53;;;;;;;122.75;7.75;;;;;;;24.72;48.61;99852.13;7299618;19;130951;-33
2023/07/08 02:13:20;;;;;;;107.88;6.90;;;;;;;24.73;48.55;99838.00;7303045;19;129795;-31
2023/07/08 02:15:45;;;;;;;104.57;6.55;;;;;;;24.73;48.28;99843.25;7302706;19;129785;-35
2023/07/08 02:18:10;;;;;;;109.37;6.87;;;;;;;24.74;49.09;99844.91;7299589;19;130486;-31
2023/07/08 02:20:36;;;;;;;89.80;5.50;;;;;;;24.74;48.25;99855.44;7300707;19;129659;-36
2023/07/08 02:23:01;;;;;;;74.53;5.03;;;;;;;24.74;48.69;99844.91;7304964;19;130179;-33
2023/07/08 02:25:26;;;;;;;94.10;6.03;;;;;;;24.75;48.24;99846.56;7303515;19;129778;-35
2023/07/08 02:27:56;;;;;;;102.83;6.30;;;;;;;24.75;48.28;99847.38;7303222;19;131161;-32
2023/07/08 02:30:23;;;;;;;92.90;5.63;;;;;;;24.73;48.34;99838.81;7300498;19;131765;-37
2023/07/08 02:32:56;;;;;;;79.03;4.85;;;;;;;24.77;48.88;99839.34;7304484;19;130322;-37
2023/07/08 02:35:23;;;;;;;60.45;4.32;;;;;;;24.76;48.38;99833.25;7304099;19;130534;-39
2023/07/08 02:37:48;;;;;;;87.78;5.75;;;;;;;24.69;48.34;99821.72;7301999;19;129440;-29
2023/07/08 02:40:14;;;;;;;111.20;6.83;;;;;;;24.77;48.36;99831.44;7297256;19;129889;-43
2023/07/08 02:42:39;;;;;;;89.07;5.50;;;;;;;24.77;48.46;99831.44;7297638;19;129951;-37
2023/07/08 02:45:06;;;;;;;106.07;6.87;;;;;;;24.76;48.60;99829.81;7301331;19;131184;-40
2023/07/08 02:47:31;;;;;;;76.03;5.03;;;;;;;24.74;48.76;99818.63;7298885;19;130896;-37
2023/07/08 02:49:57;;;;;;;103.87;6.53;;;;;;;24.78;48.54;99822.56;7301631;19;130297;-32
2023/07/08 02:52:22;;;;;;;55.07;3.87;;;;;;;24.78;48.49;99819.94;7301544;19;129998;-41
2023/07/08 02:54:48;;;;;;;98.33;6.17;;;;;;;24.78;48.19;99833.09;7299026;19;129388;-39
2023/07/08 02:57:13;;;;;;;102.20;6.53;;;;;;;24.79;48.37;99837.38;7300182;19;129303;-40
2023/07/08 02:59:39;;;;;;;84.27;5.50;;;;;;;24.80;48.23;99839.03;7298756;19;129417;-40
2023/07/08 03:02:04;;;;;;;86.37;5.33;;;;;;;24.80;48.61;99833.78;7303405;19;131000;-39
2023/07/08 03:04:30;;;;;;;88.40;5.80;;;;;;;24.79;48.25;99832.13;7301054;19;129962;-41
2023/07/08 03:06:55;;;;;;;65.87;4.40;;;;;;;24.81;48.19;99835.44;7300123;19;129659;-38
2023/07/08 03:09:21;;;;;;;66.63;4.17;;;;;;;24.80;48.48;99834.59;7301583;19;132673;-42
2023/07/08 03:11:46;;;;;;;43.60;3.23;;;;;;;25.04;51.97;99823.41;7312323;19;129369;-41
2023/07/08 03:14:11;;;;;;;46.30;3.53;;;;;;;25.33;52.47;99826.50;7312596;19;129939;-38
2023/07/08 03:16:37;;;;;;;81.73;5.70;;;;;;;25.43;51.98;99828.06;7308060;19;130232;-33
2023/07/08 03:19:02;;;;;;;63.17;4.17;;;;;;;25.49;52.48;99830.06;7307251;19;131120;-38
2023/07/08 03:21:28;;;;;;;61.97;3.90;;;;;;;25.54;52.58;99824.31;7308099;19;128986;-38
2023/07/08 03:23:53;;;;;;;22.17;2.33;;;;;;;25.55;52.82;99823.34;7312497;19;129555;-38
2023/07/08 03:26:21;;;;;;;48.27;3.60;;;;;;;25.58;52.57;99820.38;7312284;19;129101;-36
2023/07/08 03:28:47;;;;;;;67.78;4.13;;;;;;;25.57;52.73;99834.50;7311756;19;129313;-40
2023/07/08 03:31:12;;;;;;;45.40;3.37;;;;;;;25.59;52.94;99837.81;7313844;19;129237;-36
2023/07/08 03:33:38;;;;;;;30.43;2.60;;;;;;;25.59;53.24;99837.81;7312410;19;129270;-37
2023/07/08 03:36:10;;;;;;;45.13;3.50;;;;;;;25.58;52.49;99839.63;7312591;19;129476;-40
2023/07/08 03:38:35;;;;;;;50.65;3.50;;;;;;;25.60;52.99;99844.75;7310558;19;129701;-37
2023/07/08 03:41:00;;;;;;;44.90;3.60;;;;;;;25.60;53.11;99839.50;7312661;19;128888;-35
2023/07/08 03:43:26;;;;;;;28.90;2.40;;;;;;;25.61;53.41;99841.13;7311516;19;128804;-35
2023/07/08 03:45:51;;;;;;;34.53;2.73;;;;;;;25.60;53.22;99840.28;7312599;19;129509;-36
2023/07/08 03:48:17;;;;;;;58.00;4.03;;;;;;;25.61;53.31;99838.50;7310948;19;129625;-36
2023/07/08 03:50:42;;;;;;;31.53;2.73;;;;;;;25.51;53.09;99816.72;7310421;19;129833;-38
2023/07/08 03:53:09;;;;;;;32.53;2.97;;;;;;;25.59;53.61;99838.66;7312100;19;129312;-39
2023/07/08 03:55:34;;;;;;;;;;;;;;;25.69;53.58;99833.25;7312857;19;129874;-37
2023/07/08 03:57:59;;;;;;;35.08;2.58;;;;;;;25.11;50.26;99827.03;7311462;19;129341;-38
2023/07/08 04:00:25;;;;;;;26.83;2.27;;;;;;;24.93;49.52;99828.91;7309152;19;130415;-39
2023/07/08 04:02:50;;;;;;;24.27;2.30;;;;;;;24.85;49.78;99832.34;7312298;19;129357;-35
2023/07/08 04:05:18;;;;;;;52.67;3.73;;;;;;;25.05;53.28;99823.25;7311906;19;129436;-38
2023/07/08 04:07:43;;;;;;;36.28;3.15;;;;;;;25.32;53.41;99830.94;7311408;19;129029;-40
2023/07/08 04:10:10;;;;;;;36.73;2.77;;;;;;;25.43;53.30;99837.78;7309671;19;128967;-38
2023/07/08 04:12:35;;;;;;;;;;;;;;;25.58;53.61;99838.81;7311883;19;128979;-39
2023/07/08 04:15:01;;;;;;;56.22;3.88;;;;;;;25.51;53.53;99840.44;7312170;19;129699;-37
2023/07/08 04:17:27;;;;;;;35.13;2.50;;;;;;;25.41;53.65;99821.31;7310669;19;129171;-37
2023/07/08 04:19:52;;;;;;;27.23;2.27;;;;;;;25.54;53.52;99835.66;7309545;19;128857;-40
2023/07/08 04:22:17;;;;;;;15.83;1.63;;;;;;;25.51;53.71;99835.16;7311585;19;128764;-36
2023/07/08 04:24:43;;;;;;;44.10;3.27;;;;;;;25.54;53.77;99843.56;7309767;19;129410;-40
2023/07/08 04:27:18;;;;;;;62.20;4.60;;;;;;;25.56;54.40;99846.88;7311491;19;129102;-39
2023/07/08 04:29:44;;;;;;;28.27;2.35;;;;;;;25.54;53.63;99846.19;7309492;19;129587;-36
2023/07/08 04:32:09;;;;;;;29.13;2.42;;;;;;;25.54;54.15;99840.09;7310684;19;128782;-37
2023/07/08 04:34:35;;;;;;;47.73;3.20;;;;;;;25.01;50.36;99837.69;7310833;19;129382;-35
2023/07/08 04:37:01;;;;;;;58.37;4.17;;;;;;;24.90;50.51;99834.50;7310652;19;129083;-39
2023/07/08 04:39:27;;;;;;;23.73;2.37;;;;;;;24.80;50.16;99831.13;7309275;19;129181;-39
2023/07/08 04:41:52;;;;;;;29.33;2.40;;;;;;;24.85;52.74;99832.34;7315858;19;129123;-35
2023/07/08 04:44:18;;;;;;;48.10;3.33;;;;;;;25.22;53.64;99830.22;7317746;19;128950;-39
2023/07/08 04:46:50;;;;;;;31.80;2.43;;;;;;;25.37;53.81;99835.78;7317936;19;129701;-39
2023/07/08 04:49:16;;;;;;;35.95;2.47;;;;;;;25.42;53.64;99833.50;7316524;19;129392;-36
2023/07/08 04:51:42;;;;;;;26.97;2.50;;;;;;;25.47;53.81;99834.66;7317443;19;129049;-36
2023/07/08 04:54:07;;;;;;;49.53;3.30;;;;;;;25.49;53.73;99831.84;7317867;19;129250;-35
2023/07/08 04:56:41;;;;;;;27.57;2.20;;;;;;;25.50;54.29;99838.78;7317188;19;129416;-40
2023/07/08 04:59:09;;;;;;;27.38;2.30;;;;;;;25.50;54.53;99836.16;7316054;19;129382;-38
2023/07/08 05:01:34;;;;;;;25.80;2.20;;;;;;;25.50;53.44;99844.06;7317184;19;129067;-39
2023/07/08 05:04:01;;;;;;;27.30;2.47;;;;;;;25.52;54.24;99842.06;7316116;19;129408;-36
2023/07/08 05:06:27;;;;;;;32.17;2.55;;;;;;;25.52;54.27;99850.78;7317443;19;130038;-36
2023/07/08 05:08:52;;;;;;;38.37;2.70;;;;;;;25.54;54.63;99850.63;7314351;19;129365;-37
2023/07/08 05:11:17;;;;;;;29.53;2.13;;;;;;;25.01;51.05;99828.97;7317121;19;129224;-37
2023/07/08 05:13:43;;;;;;;38.63;2.70;;;;;;;24.92;50.24;99849.16;7316613;19;129025;-36
2023/07/08 05:16:08;;;;;;;34.60;2.37;;;;;;;24.81;50.15;99851.22;7316181;19;129107;-39
2023/07/08 05:18:33;;;;;;;35.87;2.73;;;;;;;24.75;49.71;99846.56;7313571;19;129522;-36
2023/07/08 05:20:59;;;;;;;25.90;2.20;;;;;;;24.98;54.19;99831.91;7316650;19;129371;-38
2023/07/08 05:23:24;;;;;;;29.47;2.43;;;;;;;25.27;54.02;99845.56;7315403;19;130260;-37
2023/07/08 05:25:50;;;;;;;45.80;3.13;;;;;;;25.29;53.90;99841.78;7316566;19;129777;-37
2023/07/08 05:28:15;;;;;;;28.67;2.20;;;;;;;25.45;53.49;99852.41;7314996;19;130152;-38
2023/07/08 05:30:41;;;;;;;30.53;2.30;;;;;;;25.47;54.40;99855.72;7314256;19;129436;-32
2023/07/08 05:33:08;;;;;;;49.47;3.40;;;;;;;25.47;54.47;99850.44;7315358;19;129637;-39
2023/07/08 05:35:33;;;;;;;;;;;;;;;25.59;54.54;99850.97;7317353;19;129193;-39
2023/07/08 05:37:59;;;;;;;38.30;2.73;;;;;;;25.51;53.82;99856.22;7315977;19;128931;-38
2023/07/08 05:40:24;;;;;;;49.13;3.27;;;;;;;25.51;54.26;99864.13;7311264;19;129282;-39
2023/07/08 05:42:50;;;;;;;23.23;2.03;;;;;;;25.50;54.45;99854.59;7315166;19;129084;-38
2023/07/08 05:45:15;;;;;;;41.60;3.03;;;;;;;25.52;54.67;99860.50;7316128;19;129345;-36
2023/07/08 05:47:41;;;;;;;27.30;2.13;;;;;;;25.48;54.56;99857.38;7315330;19;129332;-36
2023/07/08 05:50:06;;;;;;;39.57;2.87;;;;;;;25.33;52.42;99858.09;7314112;19;128899;-36
2023/07/08 05:52:32;;;;;;;38.00;2.70;;;;;;;24.94;51.39;99862.16;7313541;19;129155;-37
2023/07/08 05:54:57;;;;;;;38.87;2.67;;;;;;;24.80;51.04;99865.31;7316035;19;129587;-37
2023/07/08 05:57:25;;;;;;;25.37;2.00;;;;;;;24.71;50.74;99871.53;7314863;19;128915;-38
2023/07/08 05:59:51;;;;;;;16.88;1.67;;;;;;;24.79;54.18;99858.44;7312901;19;128964;-37
2023/07/08 06:02:19;;;;;;;39.10;2.67;;;;;;;25.21;54.48;99864.59;7315462;19;129702;-36
2023/07/08 06:04:44;;;;;;;28.50;2.28;;;;;;;25.34;54.19;99865.81;7316818;19;129212;-39
2023/07/08 06:07:10;;;;;;;68.00;4.57;;;;;;;25.41;54.30;99866.88;7315852;19;128820;-38
2023/07/08 06:09:35;;;;;;;38.53;2.80;;;;;;;25.44;54.07;99865.72;7311932;19;131403;-38
2023/07/08 06:12:01;;;;;;;10.03;1.30;;;;;;;25.46;54.26;99877.78;7316324;19;129507;-36
2023/07/08 06:14:27;;;;;;;27.60;2.00;;;;;;;25.47;54.03;99875.94;7314954;19;129244;-36
2023/07/08 06:16:54;;;;;;;28.38;2.33;;;;;;;25.48;54.47;99867.06;7314791;19;128935;-39
2023/07/08 06:19:19;;;;;;;;;;;;;;;25.58;54.53;99873.03;7313116;19;129421;-38
2023/07/08 06:21:45;;;;;;;27.92;2.17;;;;;;;25.51;54.60;99869.38;7315474;19;129585;-37
2023/07/08 06:24:10;;;;;;;32.83;2.37;;;;;;;25.51;54.41;99874.66;7314604;19;129219;-39
2023/07/08 06:26:35;;;;;;;26.63;2.00;;;;;;;25.50;54.43;99876.44;7314887;19;129634;-36
2023/07/08 06:29:01;;;;;;;39.70;2.70;;;;;;;25.15;51.96;99870.50;7312386;19;129268;-39
2023/07/08 06:31:26;;;;;;;36.80;2.70;;;;;;;24.76;50.80;99858.75;7315188;19;129080;-35
2023/07/08 06:33:52;;;;;;;25.87;2.03;;;;;;;24.80;50.46;99875.84;7315054;19;129520;-38
2023/07/08 06:36:17;;;;;;;21.13;1.60;;;;;;;24.74;50.52;99871.22;7314951;19;128912;-39
2023/07/08 06:38:42;;;;;;;56.83;3.70;;;;;;;24.88;53.76;99868.00;7311973;19;128876;-36
2023/07/08 06:41:08;;;;;;;55.10;3.40;;;;;;;25.19;54.52;99864.75;7314442;19;129272;-36
2023/07/08 06:43:33;;;;;;;29.17;2.03;;;;;;;25.33;54.15;99864.19;7313292;19;129192;-39
2023/07/08 06:45:58;;;;;;;29.13;2.27;;;;;;;25.41;54.47;99860.78;7314165;19;128980;-38
2023/07/08 06:48:25;;;;;;;43.43;2.83;;;;;;;25.45;54.50;99862.13;7313534;19;128773;-39
2023/07/08 06:50:50;;;;;;;56.45;3.97;;;;;;;25.46;54.12;99861.97;7310648;19;129230;-37
2023/07/08 06:53:16;;;;;;;4.23;0.90;;;;;;;25.44;54.20;99855.19;7314378;19;129593;-39
2023/07/08 06:55:44;;;;;;;45.07;3.00;;;;;;;25.38;54.72;99850.56;7313495;19;129633;-37
2023/07/08 06:58:09;;;;;;;73.05;4.80;;;;;;;25.47;54.15;99860.16;7312149;19;128727;-39
2023/07/08 07:00:35;;;;;;;27.80;2.20;;;;;;;25.38;54.91;99845.31;7311088;19;129551;-39
2023/07/08 07:03:00;;;;;;;29.80;2.13;;;;;;;25.49;54.92;99858.19;7311678;19;129910;-38
2023/07/08 07:05:26;;;;;;;36.60;2.60;;;;;;;25.49;54.73;99860.81;7313810;19;129597;-36
2023/07/08 07:07:52;;;;;;;37.60;2.77;;;;;;;25.44;53.57;99860.47;7312915;19;129094;-38
2023/07/08 07:10:18;;;;;;;27.92;2.05;;;;;;;24.91;51.21;99849.28;7311917;19;129368;-38
2023/07/08 07:12:43;;;;;;;30.43;2.30;;;;;;;24.81;51.02;99853.84;7312981;19;129129;-36
2023/07/08 07:15:09;;;;;;;46.10;2.93;;;;;;;24.76;50.52;99850.84;7311717;19;131995;-38
2023/07/08 07:17:35;;;;;;;27.00;1.93;;;;;;;24.76;52.03;99853.47;7312228;19;130260;-36
2023/07/08 07:20:01;;;;;;;28.38;2.08;;;;;;;25.16;53.66;99851.09;7310130;19;129944;-37
2023/07/08 07:22:27;;;;;;;60.20;3.83;;;;;;;25.29;54.16;99846.22;7312039;19;129242;-39
2023/07/08 07:24:52;;;;;;;52.70;3.23;;;;;;;25.40;53.90;99856.50;7312522;19;129104;-37
2023/07/08 07:27:18;;;;;;;32.63;2.43;;;;;;;25.40;54.11;99849.41;7312247;19;131433;-38
2023/07/08 07:29:46;;;;;;;24.17;1.73;;;;;;;25.44;54.01;99848.13;7311735;19;129236;-37
2023/07/08 07:32:12;;;;;;;22.77;1.90;;;;;;;25.44;54.72;99855.19;7312916;19;129689;-40
2023/07/08 07:34:38;;;;;;;45.60;3.00;;;;;;;25.46;54.07;99858.50;7313647;19;129485;-37
2023/07/08 07:37:05;;;;;;;129.52;8.15;;;;;;;25.43;54.45;99848.28;7312406;19;129136;-37
2023/07/08 07:39:31;;;;;;;23.33;1.90;;;;;;;25.46;54.45;99848.81;7310508;19;131206;-39
2023/07/08 07:41:56;;;;;;;48.27;3.00;;;;;;;25.47;54.30;99854.88;7311779;19;129048;-36
2023/07/08 07:44:21;;;;;;;54.63;3.20;;;;;;;25.48;54.81;99846.00;7313916;19;129785;-35
2023/07/08 07:46:47;;;;;;;26.33;1.97;;;;;;;25.48;55.16;99840.75;7312692;19;129648;-39
2023/07/08 07:49:13;;;;;;;61.03;4.23;;;;;;;24.96;50.85;99844.38;7309864;19;129269;-38
2023/07/08 07:51:38;;;;;;;27.40;1.90;;;;;;;24.80;50.48;99839.03;7312800;19;129105;-38
2023/07/08 07:54:03;;;;;;;43.17;2.60;;;;;;;24.73;50.21;99838.00;7313126;19;128825;-37
2023/07/08 07:56:29;;;;;;;27.20;1.93;;;;;;;24.69;50.15;99842.75;7313787;19;128951;-36
2023/07/08 07:58:54;;;;;;;30.00;2.10;;;;;;;24.98;54.15;99848.53;7310510;19;130451;-41
2023/07/08 08:01:19;;;;;;;24.93;1.73;;;;;;;25.23;54.51;99839.78;7312043;19;129225;-37
2023/07/08 08:03:45;;;;;;;43.20;2.70;;;;;;;25.34;54.21;99838.66;7311484;19;128872;-38
2023/07/08 08:06:10;;;;;;;30.17;2.10;;;;;;;25.39;54.25;99836.41;7312638;19;128905;-38
2023/07/08 08:08:36;;;;;;;44.03;2.67;;;;;;;25.42;53.97;99836.94;7311664;19;129060;-36
2023/07/08 08:11:01;;;;;;;39.07;2.43;;;;;;;25.43;53.95;99843.03;7312558;19;129456;-40
2023/07/08 08:13:27;;;;;;;47.40;3.20;;;;;;;25.45;54.08;99844.50;7312099;19;129689;-38
2023/07/08 08:15:59;;;;;;;37.03;2.50;;;;;;;25.46;54.25;99842.72;7315312;19;129487;-38
2023/07/08 08:18:25;;;;;;;29.40;2.10;;;;;;;25.44;54.73;99840.25;7317364;19;129171;-37
2023/07/08 08:20:51;;;;;;;34.00;2.33;;;;;;;25.43;55.13;99832.50;7313938;19;129227;-40
2023/07/08 08:23:16;;;;;;;36.30;2.30;;;;;;;25.46;54.70;99842.72;7318541;19;129162;-39
2023/07/08 08:25:41;;;;;;;32.10;2.27;;;;;;;25.47;54.63;99841.72;7318666;19;129160;-36
2023/07/08 08:28:07;;;;;;;36.40;2.57;;;;;;;24.95;51.25;99837.47;7316715;19;129784;-39
2023/07/08 08:30:32;;;;;;;35.40;2.63;;;;;;;24.80;51.09;99839.88;7314889;19;129375;-39
2023/07/08 08:32:58;;;;;;;30.17;2.20;;;;;;;24.75;50.75;99834.25;7318732;19;128843;-39
2023/07/08 08:35:23;;;;;;;26.90;1.97;;;;;;;24.73;50.75;99838.00;7317032;19;129232;-39
2023/07/08 08:37:49;;;;;;;61.00;3.67;;;;;;;25.04;54.24;99832.09;7317484;19;129363;-39
2023/07/08 08:40:17;;;;;;;46.13;2.90;;;;;;;25.22;53.89;99834.69;7315718;19;129961;-38
2023/07/08 08:43:02;;;;;;;52.17;3.17;;;;;;;25.38;54.70;99847.94;7318194;19;128968;-39
2023/07/08 08:45:32;;;;;;;33.92;2.28;;;;;;;25.35;54.62;99835.09;7316410;19;130408;-36
2023/07/08 08:48:02;;;;;;;33.53;2.22;;;;;;;25.41;54.52;99839.72;7317425;19;129247;-39
2023/07/08 08:50:45;;;;;;;26.52;1.98;;;;;;;25.43;54.58;99837.78;7315062;19;129201;-35
2023/07/08 08:53:13;;;;;;;27.60;1.95;;;;;;;25.43;54.98;99848.28;7317131;19;129355;-37
2023/07/08 08:55:40;;;;;;;46.42;2.95;;;;;;;25.43;54.85;99843.03;7317715;19;129376;-38
2023/07/08 08:58:11;;;;;;;48.83;2.90;;;;;;;25.43;54.88;99846.50;7317193;19;129645;-36
2023/07/08 09:00:55;;;;;;;26.20;2.03;;;;;;;25.47;54.54;99849.63;7315087;19;129558;-37
2023/07/08 09:03:50;;;;;;;27.63;1.83;;;;;;;25.47;55.07;99839.91;7317500;19;128999;-34
2023/07/08 09:06:18;;;;;;;27.45;1.92;;;;;;;25.01;51.35;99836.84;7319096;19;129994;-35
2023/07/08 09:08:45;;;;;;;31.85;2.05;;;;;;;24.80;50.94;99828.50;7316964;19;129470;-35
2023/07/08 09:11:20;;;;;;;20.25;1.52;;;;;;;24.78;51.85;99830.47;7316514;19;129801;-38
2023/07/08 09:13:45;;;;;;;40.72;2.40;;;;;;;24.75;50.85;99833.41;7317196;19;129129;-36
2023/07/08 09:16:25;;;;;;;30.80;2.30;;;;;;;24.94;54.41;99827.97;7316553;19;129121;-36
2023/07/08 09:19:18;;;;;;;29.98;2.00;;;;;;;25.19;54.73;99824.44;7314472;19;129045;-39
2023/07/08 09:21:53;;;;;;;31.95;2.22;;;;;;;25.35;54.57;99829.84;7317524;19;130062;-38
2023/07/08 09:24:32;;;;;;;27.15;1.95;;;;;;;25.41;54.05;99834.47;7317702;19;130344;-39
2023/07/08 09:27:01;;;;;;;31.20;2.10;;;;;;;25.42;54.12;99836.13;7316374;19;129576;-37
2023/07/08 09:29:26;;;;;;;25.85;1.95;;;;;;;25.31;54.62;99812.66;7314775;19;129705;-33
2023/07/08 09:31:51;;;;;;;47.27;2.97;;;;;;;25.43;54.39;99833.34;7317323;19;130165;-37
2023/07/08 09:34:22;;;;;;;29.30;1.80;;;;;;;25.40;54.85;99827.56;7317341;19;128975;-39
2023/07/08 09:36:49;;;;;;;37.20;2.30;;;;;;;25.44;54.42;99834.97;7316620;19;129169;-34
2023/07/08 09:39:20;;;;;;;27.05;1.75;;;;;;;25.36;54.61;99820.94;7314662;19;129515;-38
2023/07/08 09:41:47;;;;;;;35.28;2.38;;;;;;;25.45;54.49;99830.53;7316380;19;129359;-37
2023/07/08 09:44:29;;;;;;;15.30;1.25;;;;;;;25.36;54.59;99828.84;7315636;19;128859;-38
2023/07/08 09:46:57;;;;;;;29.48;1.98;;;;;;;24.85;50.77;99836.75;7316601;19;129258;-37
2023/07/08 09:49:27;;;;;;;35.65;2.38;;;;;;;24.78;51.20;99835.72;7314266;19;129419;-38
2023/07/08 09:51:53;;;;;;;25.85;1.80;;;;;;;24.70;50.81;99838.28;7316422;19;130839;-38
2023/07/08 09:54:21;;;;;;;42.70;2.60;;;;;;;24.64;50.25;99831.00;7316412;19;129315;-39
2023/07/08 09:57:00;;;;;;;42.72;2.67;;;;;;;25.07;54.67;99831.00;7317354;19;129232;-35
2023/07/08 09:59:31;;;;;;;28.90;2.03;;;;;;;25.16;54.04;99814.25;7314523;19;129480;-34
2023/07/08 10:02:00;;;;;;;34.85;2.20;;;;;;;25.34;54.52;99828.13;7315137;19;129170;-36
2023/07/08 10:04:26;;;;;;;27.30;1.98;;;;;;;25.38;53.89;99833.00;7315023;19;129350;-36
2023/07/08 10:06:54;;;;;;;47.37;2.87;;;;;;;25.37;54.29;99835.78;7315181;19;128866;-38
2023/07/08 10:09:24;;;;;;;31.23;2.05;;;;;;;25.41;54.80;99843.19;7314724;19;129392;-39
2023/07/08 10:12:02;;;;;;;34.55;2.15;;;;;;;25.33;55.14;99815.97;7314452;19;130606;-35
2023/07/08 10:14:34;;;;;;;33.35;2.20;;;;;;;25.39;55.01;99826.72;7315004;19;128820;-36
2023/07/08 10:17:00;;;;;;;48.22;3.08;;;;;;;25.43;54.83;99835.13;7314546;19;129228;-39
2023/07/08 10:19:26;;;;;;;27.23;1.93;;;;;;;25.43;54.43;99827.25;7312706;19;129496;-37
2023/07/08 10:21:57;;;;;;;11.10;1.10;;;;;;;25.42;54.73;99825.59;7315382;19;129835;-36
2023/07/08 10:24:28;;;;;;;26.40;1.85;;;;;;;25.46;54.86;99832.19;7316136;19;128965;-39
2023/07/08 10:27:07;;;;;;;34.83;2.33;;;;;;;24.98;52.53;99826.66;7313043;19;131544;-37
2023/07/08 10:29:39;;;;;;;26.23;1.80;;;;;;;24.80;51.75;99831.97;7313969;19;129424;-37
2023/07/08 10:32:15;;;;;;;40.03;2.63;;;;;;;24.64;50.98;99809.97;7314269;19;129123;-39
2023/07/08 10:34:45;;;;;;;43.78;2.67;;;;;;;24.74;50.58;99829.13;7314483;19;129188;-39
2023/07/08 10:37:46;;;;;;;57.65;3.78;;;;;;;25.05;54.16;99828.50;7314452;19;129076;-38
2023/07/08 10:40:36;;;;;;;43.63;2.70;;;;;;;25.25;54.50;99815.94;7311945;19;129487;-37
2023/07/08 10:43:39;;;;;;;46.05;2.80;;;;;;;25.36;54.73;99824.41;7314799;19;129644;-36
2023/07/08 10:46:29;;;;;;;35.28;2.25;;;;;;;25.39;54.66;99821.47;7314714;19;128906;-39
2023/07/08 10:49:24;;;;;;;33.95;2.25;;;;;;;25.44;54.58;99826.25;7313534;19;129561;-39
2023/07/08 10:52:11;;;;;;;28.15;1.73;;;;;;;25.37;54.63;99817.34;7312938;19;129538;-38
2023/07/08 10:54:51;;;;;;;42.00;2.65;;;;;;;25.33;54.88;99808.09;7314417;19;129363;-39
2023/07/08 10:58:02;;;;;;;38.88;2.72;;;;;;;25.47;55.05;99818.03;7313634;19;128723;-35
2023/07/08 11:00:42;;;;;;;28.90;1.90;;;;;;;25.42;54.54;99812.44;7311630;19;129662;-37
2023/07/08 11:03:31;;;;;;;31.77;2.20;;;;;;;25.43;55.44;99811.44;7314068;19;129731;-38
2023/07/08 11:06:13;;;;;;;28.20;1.88;;;;;;;25.05;51.42;99822.41;7313545;19;129317;-36
2023/07/08 11:08:47;;;;;;;35.65;2.25;;;;;;;24.81;52.01;99817.03;7313443;19;129120;-38
2023/07/08 11:11:50;;;;;;;34.25;2.17;;;;;;;24.76;52.90;99819.28;7313054;19;129243;-38
2023/07/08 11:14:36;;;;;;;17.20;1.42;;;;;;;24.71;50.86;99818.94;7312593;19;129148;-38
2023/07/08 11:17:19;;;;;;;60.42;3.95;;;;;;;25.06;54.58;99803.00;7310443;19;131966;-36
2023/07/08 11:20:16;;;;;;;41.08;2.58;;;;;;;25.30;54.43;99803.13;7312062;19;129086;-38
2023/07/08 11:23:05;;;;;;;26.58;1.83;;;;;;;25.36;54.05;99806.00;7312931;19;128880;-40
2023/07/08 11:25:32;;;;;;;28.90;2.00;;;;;;;25.37;54.42;99806.81;7313304;19;129020;-38